sensor_id;sensor_type;location;lat;lon;timestamp;P1;durP1;ratioP1;P2;durP2;ratioP2
55989;SDS011;41875;55.806;38.082;2023-04-15T00:01:13;2.67;;;1.23;;
55989;SDS011;41875;55.806;38.082;2023-04-15T00:03:47;5.30;;;1.10;;
55989;SDS011;41875;55.806;38.082;2023-04-15T00:06:15;2.30;;;1.23;;
55989;SDS011;41875;55.806;38.082;2023-04-15T00:08:45;4.45;;;1.30;;
55989;SDS011;41875;55.806;38.082;2023-04-15T00:13:42;5.55;;;1.55;;
55989;SDS011;41875;55.806;38.082;2023-04-15T00:16:11;3.90;;;1.00;;
55989;SDS011;41875;55.806;38.082;2023-04-15T00:18:39;3.83;;;1.52;;
55989;SDS011;41875;55.806;38.082;2023-04-15T00:23:38;2.05;;;1.10;;
55989;SDS011;41875;55.806;38.082;2023-04-15T00:26:07;2.97;;;1.15;;
55989;SDS011;41875;55.806;38.082;2023-04-15T00:28:35;3.75;;;1.50;;
55989;SDS011;41875;55.806;38.082;2023-04-15T00:31:04;3.30;;;1.30;;
55989;SDS011;41875;55.806;38.082;2023-04-15T00:36:03;5.45;;;1.65;;
55989;SDS011;41875;55.806;38.082;2023-04-15T00:38:36;2.45;;;1.27;;
55989;SDS011;41875;55.806;38.082;2023-04-15T00:41:05;6.75;;;1.23;;
55989;SDS011;41875;55.806;38.082;2023-04-15T00:43:33;2.70;;;1.10;;
55989;SDS011;41875;55.806;38.082;2023-04-15T00:46:03;2.88;;;1.10;;
55989;SDS011;41875;55.806;38.082;2023-04-15T00:48:33;2.15;;;1.10;;
55989;SDS011;41875;55.806;38.082;2023-04-15T00:51:02;3.63;;;1.30;;
55989;SDS011;41875;55.806;38.082;2023-04-15T00:53:31;2.95;;;1.45;;
55989;SDS011;41875;55.806;38.082;2023-04-15T00:58:29;2.25;;;0.90;;
55989;SDS011;41875;55.806;38.082;2023-04-15T01:00:58;2.60;;;1.15;;
55989;SDS011;41875;55.806;38.082;2023-04-15T01:03:28;2.75;;;1.40;;
55989;SDS011;41875;55.806;38.082;2023-04-15T01:05:57;4.47;;;1.30;;
55989;SDS011;41875;55.806;38.082;2023-04-15T01:08:29;2.00;;;1.00;;
55989;SDS011;41875;55.806;38.082;2023-04-15T01:13:31;1.75;;;1.10;;
55989;SDS011;41875;55.806;38.082;2023-04-15T01:16:01;2.00;;;1.15;;
55989;SDS011;41875;55.806;38.082;2023-04-15T01:20:58;4.60;;;1.35;;
55989;SDS011;41875;55.806;38.082;2023-04-15T01:23:29;3.05;;;1.02;;
55989;SDS011;41875;55.806;38.082;2023-04-15T01:26:01;3.60;;;1.38;;
55989;SDS011;41875;55.806;38.082;2023-04-15T01:28:30;2.50;;;1.15;;
55989;SDS011;41875;55.806;38.082;2023-04-15T01:31:05;3.42;;;1.20;;
55989;SDS011;41875;55.806;38.082;2023-04-15T01:33:37;2.30;;;1.08;;
55989;SDS011;41875;55.806;38.082;2023-04-15T01:36:25;7.13;;;1.48;;
55989;SDS011;41875;55.806;38.082;2023-04-15T01:38:53;2.53;;;0.90;;
55989;SDS011;41875;55.806;38.082;2023-04-15T01:41:25;2.45;;;0.95;;
55989;SDS011;41875;55.806;38.082;2023-04-15T01:43:55;2.95;;;1.20;;
55989;SDS011;41875;55.806;38.082;2023-04-15T01:46:25;6.55;;;1.30;;
55989;SDS011;41875;55.806;38.082;2023-04-15T01:48:55;2.20;;;1.10;;
55989;SDS011;41875;55.806;38.082;2023-04-15T01:51:25;3.20;;;1.58;;
55989;SDS011;41875;55.806;38.082;2023-04-15T01:53:55;1.83;;;1.05;;
55989;SDS011;41875;55.806;38.082;2023-04-15T01:56:26;4.90;;;1.45;;
55989;SDS011;41875;55.806;38.082;2023-04-15T01:58:56;2.83;;;1.20;;
55989;SDS011;41875;55.806;38.082;2023-04-15T02:01:27;2.40;;;1.17;;
55989;SDS011;41875;55.806;38.082;2023-04-15T02:03:59;3.22;;;1.05;;
55989;SDS011;41875;55.806;38.082;2023-04-15T02:06:31;3.20;;;1.25;;
55989;SDS011;41875;55.806;38.082;2023-04-15T02:09:01;3.00;;;1.20;;
55989;SDS011;41875;55.806;38.082;2023-04-15T02:11:32;3.83;;;1.00;;
55989;SDS011;41875;55.806;38.082;2023-04-15T02:14:04;1.85;;;1.17;;
55989;SDS011;41875;55.806;38.082;2023-04-15T02:16:34;2.20;;;1.13;;
55989;SDS011;41875;55.806;38.082;2023-04-15T02:19:03;2.40;;;1.00;;
55989;SDS011;41875;55.806;38.082;2023-04-15T02:21:33;2.30;;;1.00;;
55989;SDS011;41875;55.806;38.082;2023-04-15T02:24:03;2.92;;;1.20;;
55989;SDS011;41875;55.806;38.082;2023-04-15T02:26:34;5.13;;;1.80;;
55989;SDS011;41875;55.806;38.082;2023-04-15T02:32:00;2.58;;;1.23;;
55989;SDS011;41875;55.806;38.082;2023-04-15T02:34:30;5.75;;;1.80;;
55989;SDS011;41875;55.806;38.082;2023-04-15T02:37:00;3.03;;;1.13;;
55989;SDS011;41875;55.806;38.082;2023-04-15T02:39:30;2.83;;;1.55;;
55989;SDS011;41875;55.806;38.082;2023-04-15T02:42:01;2.65;;;1.15;;
55989;SDS011;41875;55.806;38.082;2023-04-15T02:44:32;3.03;;;1.13;;
55989;SDS011;41875;55.806;38.082;2023-04-15T02:47:04;3.92;;;1.40;;
55989;SDS011;41875;55.806;38.082;2023-04-15T02:49:34;2.42;;;1.15;;
55989;SDS011;41875;55.806;38.082;2023-04-15T02:52:04;3.33;;;1.40;;
55989;SDS011;41875;55.806;38.082;2023-04-15T02:54:34;2.97;;;1.30;;
55989;SDS011;41875;55.806;38.082;2023-04-15T02:57:05;3.35;;;1.20;;
55989;SDS011;41875;55.806;38.082;2023-04-15T02:59:35;3.30;;;1.20;;
55989;SDS011;41875;55.806;38.082;2023-04-15T03:02:06;2.53;;;1.30;;
55989;SDS011;41875;55.806;38.082;2023-04-15T03:04:36;1.98;;;1.17;;
55989;SDS011;41875;55.806;38.082;2023-04-15T03:07:06;4.28;;;1.40;;
55989;SDS011;41875;55.806;38.082;2023-04-15T03:09:36;2.88;;;1.20;;
55989;SDS011;41875;55.806;38.082;2023-04-15T03:12:08;2.40;;;1.20;;
55989;SDS011;41875;55.806;38.082;2023-04-15T03:14:38;6.80;;;1.30;;
55989;SDS011;41875;55.806;38.082;2023-04-15T03:17:08;1.83;;;1.02;;
55989;SDS011;41875;55.806;38.082;2023-04-15T03:19:39;2.58;;;1.17;;
55989;SDS011;41875;55.806;38.082;2023-04-15T03:22:09;2.92;;;1.25;;
55989;SDS011;41875;55.806;38.082;2023-04-15T03:24:39;3.78;;;1.13;;
55989;SDS011;41875;55.806;38.082;2023-04-15T03:27:10;3.05;;;1.20;;
55989;SDS011;41875;55.806;38.082;2023-04-15T03:29:40;1.75;;;1.13;;
55989;SDS011;41875;55.806;38.082;2023-04-15T03:32:10;3.13;;;1.13;;
55989;SDS011;41875;55.806;38.082;2023-04-15T03:34:42;6.05;;;1.33;;
55989;SDS011;41875;55.806;38.082;2023-04-15T03:37:12;4.82;;;1.40;;
55989;SDS011;41875;55.806;38.082;2023-04-15T03:39:41;2.53;;;1.30;;
55989;SDS011;41875;55.806;38.082;2023-04-15T03:42:12;7.70;;;1.75;;
55989;SDS011;41875;55.806;38.082;2023-04-15T03:44:42;6.95;;;2.25;;
55989;SDS011;41875;55.806;38.082;2023-04-15T03:47:12;13.32;;;2.38;;
55989;SDS011;41875;55.806;38.082;2023-04-15T03:49:42;3.75;;;1.58;;
55989;SDS011;41875;55.806;38.082;2023-04-15T03:52:11;4.90;;;1.83;;
55989;SDS011;41875;55.806;38.082;2023-04-15T03:54:41;4.15;;;1.83;;
55989;SDS011;41875;55.806;38.082;2023-04-15T03:57:10;4.35;;;1.85;;
55989;SDS011;41875;55.806;38.082;2023-04-15T03:59:42;4.20;;;1.85;;
55989;SDS011;41875;55.806;38.082;2023-04-15T04:02:11;5.10;;;2.13;;
55989;SDS011;41875;55.806;38.082;2023-04-15T04:04:41;8.02;;;2.08;;
55989;SDS011;41875;55.806;38.082;2023-04-15T04:07:13;5.07;;;1.83;;
55989;SDS011;41875;55.806;38.082;2023-04-15T04:09:44;4.70;;;1.55;;
55989;SDS011;41875;55.806;38.082;2023-04-15T04:12:15;4.75;;;1.50;;
55989;SDS011;41875;55.806;38.082;2023-04-15T04:14:45;7.95;;;1.90;;
55989;SDS011;41875;55.806;38.082;2023-04-15T04:17:17;6.13;;;2.45;;
55989;SDS011;41875;55.806;38.082;2023-04-15T04:19:46;6.05;;;1.40;;
55989;SDS011;41875;55.806;38.082;2023-04-15T04:22:16;5.50;;;1.67;;
55989;SDS011;41875;55.806;38.082;2023-04-15T04:24:46;4.90;;;1.33;;
55989;SDS011;41875;55.806;38.082;2023-04-15T04:27:17;4.43;;;1.20;;
55989;SDS011;41875;55.806;38.082;2023-04-15T04:29:47;3.15;;;1.30;;
55989;SDS011;41875;55.806;38.082;2023-04-15T04:32:34;4.47;;;1.77;;
55989;SDS011;41875;55.806;38.082;2023-04-15T04:35:06;2.25;;;1.33;;
55989;SDS011;41875;55.806;38.082;2023-04-15T04:37:37;4.45;;;1.30;;
55989;SDS011;41875;55.806;38.082;2023-04-15T04:40:07;6.90;;;1.25;;
55989;SDS011;41875;55.806;38.082;2023-04-15T04:42:39;5.10;;;1.92;;
55989;SDS011;41875;55.806;38.082;2023-04-15T04:45:08;3.45;;;1.40;;
55989;SDS011;41875;55.806;38.082;2023-04-15T04:47:38;4.22;;;1.40;;
55989;SDS011;41875;55.806;38.082;2023-04-15T04:50:08;5.90;;;1.42;;
55989;SDS011;41875;55.806;38.082;2023-04-15T04:52:38;4.30;;;1.25;;
55989;SDS011;41875;55.806;38.082;2023-04-15T04:55:08;3.67;;;1.15;;
55989;SDS011;41875;55.806;38.082;2023-04-15T04:57:39;3.67;;;1.45;;
55989;SDS011;41875;55.806;38.082;2023-04-15T05:00:10;5.00;;;1.40;;
55989;SDS011;41875;55.806;38.082;2023-04-15T05:02:41;2.60;;;1.20;;
55989;SDS011;41875;55.806;38.082;2023-04-15T05:05:11;6.07;;;1.25;;
55989;SDS011;41875;55.806;38.082;2023-04-15T05:07:45;2.55;;;1.40;;
55989;SDS011;41875;55.806;38.082;2023-04-15T05:10:16;4.05;;;1.40;;
55989;SDS011;41875;55.806;38.082;2023-04-15T05:12:48;5.00;;;1.58;;
55989;SDS011;41875;55.806;38.082;2023-04-15T05:15:19;3.58;;;1.33;;
55989;SDS011;41875;55.806;38.082;2023-04-15T05:17:51;5.20;;;1.30;;
55989;SDS011;41875;55.806;38.082;2023-04-15T05:20:21;4.55;;;1.30;;
55989;SDS011;41875;55.806;38.082;2023-04-15T05:22:51;2.70;;;1.20;;
55989;SDS011;41875;55.806;38.082;2023-04-15T05:25:21;2.55;;;1.08;;
55989;SDS011;41875;55.806;38.082;2023-04-15T05:27:52;7.35;;;1.38;;
55989;SDS011;41875;55.806;38.082;2023-04-15T05:30:22;4.05;;;1.13;;
55989;SDS011;41875;55.806;38.082;2023-04-15T05:32:52;5.90;;;1.40;;
55989;SDS011;41875;55.806;38.082;2023-04-15T05:35:21;3.80;;;1.10;;
55989;SDS011;41875;55.806;38.082;2023-04-15T05:37:51;2.97;;;1.00;;
55989;SDS011;41875;55.806;38.082;2023-04-15T05:40:21;8.45;;;1.30;;
55989;SDS011;41875;55.806;38.082;2023-04-15T05:42:52;3.40;;;1.30;;
55989;SDS011;41875;55.806;38.082;2023-04-15T05:45:22;5.53;;;1.42;;
55989;SDS011;41875;55.806;38.082;2023-04-15T05:47:52;4.30;;;1.05;;
55989;SDS011;41875;55.806;38.082;2023-04-15T05:50:22;4.10;;;1.10;;
55989;SDS011;41875;55.806;38.082;2023-04-15T05:52:52;4.60;;;1.30;;
55989;SDS011;41875;55.806;38.082;2023-04-15T05:55:22;3.25;;;1.23;;
55989;SDS011;41875;55.806;38.082;2023-04-15T05:57:54;5.15;;;1.20;;
55989;SDS011;41875;55.806;38.082;2023-04-15T06:00:24;4.07;;;1.40;;
55989;SDS011;41875;55.806;38.082;2023-04-15T06:02:54;3.75;;;1.30;;
55989;SDS011;41875;55.806;38.082;2023-04-15T06:05:25;4.15;;;1.40;;
55989;SDS011;41875;55.806;38.082;2023-04-15T06:07:55;3.80;;;1.20;;
55989;SDS011;41875;55.806;38.082;2023-04-15T06:10:24;4.03;;;1.15;;
55989;SDS011;41875;55.806;38.082;2023-04-15T06:12:56;9.30;;;2.00;;
55989;SDS011;41875;55.806;38.082;2023-04-15T06:15:25;2.67;;;1.20;;
55989;SDS011;41875;55.806;38.082;2023-04-15T06:17:55;3.53;;;1.42;;
55989;SDS011;41875;55.806;38.082;2023-04-15T06:20:25;4.30;;;1.23;;
55989;SDS011;41875;55.806;38.082;2023-04-15T06:25:56;4.63;;;1.48;;
55989;SDS011;41875;55.806;38.082;2023-04-15T06:28:28;7.03;;;1.83;;
55989;SDS011;41875;55.806;38.082;2023-04-15T06:31:18;3.65;;;1.35;;
55989;SDS011;41875;55.806;38.082;2023-04-15T06:33:49;4.53;;;1.50;;
55989;SDS011;41875;55.806;38.082;2023-04-15T06:36:24;2.78;;;1.30;;
55989;SDS011;41875;55.806;38.082;2023-04-15T06:38:55;3.50;;;1.30;;
55989;SDS011;41875;55.806;38.082;2023-04-15T06:41:32;3.50;;;1.38;;
55989;SDS011;41875;55.806;38.082;2023-04-15T06:44:04;1.98;;;1.08;;
55989;SDS011;41875;55.806;38.082;2023-04-15T06:46:36;3.60;;;1.40;;
55989;SDS011;41875;55.806;38.082;2023-04-15T06:49:06;1.75;;;0.80;;
55989;SDS011;41875;55.806;38.082;2023-04-15T06:51:41;4.57;;;1.40;;
55989;SDS011;41875;55.806;38.082;2023-04-15T06:54:11;3.22;;;1.52;;
55989;SDS011;41875;55.806;38.082;2023-04-15T06:56:42;4.40;;;1.38;;
55989;SDS011;41875;55.806;38.082;2023-04-15T06:59:13;2.60;;;1.13;;
55989;SDS011;41875;55.806;38.082;2023-04-15T07:01:47;2.22;;;1.08;;
55989;SDS011;41875;55.806;38.082;2023-04-15T07:04:24;4.70;;;1.48;;
55989;SDS011;41875;55.806;38.082;2023-04-15T07:06:55;7.35;;;2.20;;
55989;SDS011;41875;55.806;38.082;2023-04-15T07:09:24;3.00;;;1.30;;
55989;SDS011;41875;55.806;38.082;2023-04-15T07:11:56;5.30;;;1.75;;
55989;SDS011;41875;55.806;38.082;2023-04-15T07:14:28;4.18;;;1.20;;
55989;SDS011;41875;55.806;38.082;2023-04-15T07:16:58;2.38;;;1.27;;
55989;SDS011;41875;55.806;38.082;2023-04-15T07:19:32;3.67;;;1.40;;
55989;SDS011;41875;55.806;38.082;2023-04-15T07:22:12;3.95;;;1.30;;
55989;SDS011;41875;55.806;38.082;2023-04-15T07:24:44;7.53;;;2.33;;
55989;SDS011;41875;55.806;38.082;2023-04-15T07:27:17;2.33;;;1.13;;
55989;SDS011;41875;55.806;38.082;2023-04-15T07:29:52;2.88;;;1.25;;
55989;SDS011;41875;55.806;38.082;2023-04-15T07:32:22;2.88;;;1.20;;
55989;SDS011;41875;55.806;38.082;2023-04-15T07:34:53;3.90;;;1.40;;
55989;SDS011;41875;55.806;38.082;2023-04-15T07:37:28;4.93;;;1.30;;
55989;SDS011;41875;55.806;38.082;2023-04-15T07:40:26;2.95;;;1.13;;
55989;SDS011;41875;55.806;38.082;2023-04-15T07:42:57;5.28;;;1.90;;
55989;SDS011;41875;55.806;38.082;2023-04-15T07:45:29;3.63;;;1.20;;
55989;SDS011;41875;55.806;38.082;2023-04-15T07:47:59;3.70;;;1.30;;
55989;SDS011;41875;55.806;38.082;2023-04-15T07:50:46;3.80;;;1.33;;
55989;SDS011;41875;55.806;38.082;2023-04-15T07:53:23;3.35;;;1.40;;
55989;SDS011;41875;55.806;38.082;2023-04-15T07:56:00;3.67;;;0.95;;
55989;SDS011;41875;55.806;38.082;2023-04-15T07:58:38;3.35;;;1.35;;
55989;SDS011;41875;55.806;38.082;2023-04-15T08:04:30;4.55;;;1.25;;
55989;SDS011;41875;55.806;38.082;2023-04-15T08:07:10;8.43;;;1.42;;
55989;SDS011;41875;55.806;38.082;2023-04-15T08:09:49;4.03;;;1.23;;
55989;SDS011;41875;55.806;38.082;2023-04-15T08:12:22;5.22;;;1.45;;
55989;SDS011;41875;55.806;38.082;2023-04-15T08:14:54;5.80;;;1.60;;
55989;SDS011;41875;55.806;38.082;2023-04-15T08:18:15;3.35;;;1.40;;
55989;SDS011;41875;55.806;38.082;2023-04-15T08:20:46;4.68;;;1.40;;
55989;SDS011;41875;55.806;38.082;2023-04-15T08:23:48;5.32;;;1.45;;
55989;SDS011;41875;55.806;38.082;2023-04-15T08:26:31;6.00;;;1.50;;
55989;SDS011;41875;55.806;38.082;2023-04-15T08:29:01;3.80;;;1.45;;
55989;SDS011;41875;55.806;38.082;2023-04-15T08:31:32;3.45;;;1.20;;
55989;SDS011;41875;55.806;38.082;2023-04-15T08:34:17;4.70;;;1.80;;
55989;SDS011;41875;55.806;38.082;2023-04-15T08:39:41;3.10;;;1.45;;
55989;SDS011;41875;55.806;38.082;2023-04-15T08:42:16;3.42;;;1.20;;
55989;SDS011;41875;55.806;38.082;2023-04-15T08:44:54;5.85;;;1.77;;
55989;SDS011;41875;55.806;38.082;2023-04-15T08:47:29;5.18;;;1.63;;
55989;SDS011;41875;55.806;38.082;2023-04-15T08:50:02;3.67;;;1.30;;
55989;SDS011;41875;55.806;38.082;2023-04-15T08:52:39;4.95;;;1.60;;
55989;SDS011;41875;55.806;38.082;2023-04-15T08:55:09;2.83;;;1.33;;
55989;SDS011;41875;55.806;38.082;2023-04-15T08:57:46;3.55;;;1.63;;
55989;SDS011;41875;55.806;38.082;2023-04-15T09:00:29;5.72;;;1.80;;
55989;SDS011;41875;55.806;38.082;2023-04-15T09:03:03;4.22;;;1.77;;
55989;SDS011;41875;55.806;38.082;2023-04-15T09:05:39;6.35;;;1.73;;
55989;SDS011;41875;55.806;38.082;2023-04-15T09:08:11;6.53;;;1.90;;
55989;SDS011;41875;55.806;38.082;2023-04-15T09:10:44;7.40;;;1.42;;
55989;SDS011;41875;55.806;38.082;2023-04-15T09:13:23;6.03;;;1.35;;
55989;SDS011;41875;55.806;38.082;2023-04-15T09:15:53;6.78;;;1.52;;
55989;SDS011;41875;55.806;38.082;2023-04-15T09:18:31;6.10;;;1.38;;
55989;SDS011;41875;55.806;38.082;2023-04-15T09:21:13;4.28;;;2.20;;
55989;SDS011;41875;55.806;38.082;2023-04-15T09:24:09;6.75;;;1.90;;
55989;SDS011;41875;55.806;38.082;2023-04-15T09:30:22;4.07;;;1.75;;
55989;SDS011;41875;55.806;38.082;2023-04-15T09:32:53;4.40;;;1.40;;
55989;SDS011;41875;55.806;38.082;2023-04-15T09:35:57;4.13;;;1.60;;
55989;SDS011;41875;55.806;38.082;2023-04-15T09:38:37;3.80;;;1.38;;
55989;SDS011;41875;55.806;38.082;2023-04-15T09:41:25;4.50;;;1.30;;
55989;SDS011;41875;55.806;38.082;2023-04-15T09:43:56;5.45;;;1.73;;
55989;SDS011;41875;55.806;38.082;2023-04-15T09:46:41;2.30;;;1.13;;
55989;SDS011;41875;55.806;38.082;2023-04-15T09:49:12;4.90;;;1.40;;
55989;SDS011;41875;55.806;38.082;2023-04-15T09:51:43;3.05;;;1.58;;
55989;SDS011;41875;55.806;38.082;2023-04-15T09:54:33;4.80;;;1.80;;
55989;SDS011;41875;55.806;38.082;2023-04-15T09:57:19;10.85;;;2.92;;
55989;SDS011;41875;55.806;38.082;2023-04-15T09:59:50;10.73;;;2.83;;
55989;SDS011;41875;55.806;38.082;2023-04-15T10:02:22;5.97;;;1.90;;
55989;SDS011;41875;55.806;38.082;2023-04-15T10:04:53;5.07;;;1.92;;
55989;SDS011;41875;55.806;38.082;2023-04-15T10:07:24;3.80;;;1.27;;
55989;SDS011;41875;55.806;38.082;2023-04-15T10:10:05;4.10;;;1.50;;
55989;SDS011;41875;55.806;38.082;2023-04-15T10:12:37;6.32;;;1.35;;
55989;SDS011;41875;55.806;38.082;2023-04-15T10:15:11;4.57;;;1.48;;
55989;SDS011;41875;55.806;38.082;2023-04-15T10:17:46;3.92;;;1.50;;
55989;SDS011;41875;55.806;38.082;2023-04-15T10:20:19;7.88;;;1.67;;
55989;SDS011;41875;55.806;38.082;2023-04-15T10:22:50;4.47;;;1.83;;
55989;SDS011;41875;55.806;38.082;2023-04-15T10:25:23;4.25;;;1.50;;
55989;SDS011;41875;55.806;38.082;2023-04-15T10:27:55;6.05;;;1.88;;
55989;SDS011;41875;55.806;38.082;2023-04-15T10:30:25;5.05;;;1.83;;
55989;SDS011;41875;55.806;38.082;2023-04-15T10:32:56;5.93;;;2.20;;
55989;SDS011;41875;55.806;38.082;2023-04-15T10:35:25;8.18;;;1.77;;
55989;SDS011;41875;55.806;38.082;2023-04-15T10:37:57;3.58;;;1.50;;
55989;SDS011;41875;55.806;38.082;2023-04-15T10:40:29;3.70;;;1.30;;
55989;SDS011;41875;55.806;38.082;2023-04-15T10:43:00;4.90;;;1.63;;
55989;SDS011;41875;55.806;38.082;2023-04-15T10:45:31;3.67;;;1.45;;
55989;SDS011;41875;55.806;38.082;2023-04-15T10:48:06;4.93;;;1.73;;
55989;SDS011;41875;55.806;38.082;2023-04-15T10:50:56;4.72;;;1.60;;
55989;SDS011;41875;55.806;38.082;2023-04-15T10:57:13;5.10;;;1.80;;
55989;SDS011;41875;55.806;38.082;2023-04-15T11:00:02;4.53;;;1.80;;
55989;SDS011;41875;55.806;38.082;2023-04-15T11:02:40;6.63;;;1.92;;
55989;SDS011;41875;55.806;38.082;2023-04-15T11:05:14;2.42;;;1.25;;
55989;SDS011;41875;55.806;38.082;2023-04-15T11:07:58;4.95;;;1.40;;
55989;SDS011;41875;55.806;38.082;2023-04-15T11:13:28;3.92;;;1.83;;
55989;SDS011;41875;55.806;38.082;2023-04-15T11:16:01;6.00;;;2.03;;
55989;SDS011;41875;55.806;38.082;2023-04-15T11:18:32;3.70;;;1.50;;
55989;SDS011;41875;55.806;38.082;2023-04-15T11:21:03;5.05;;;1.60;;
55989;SDS011;41875;55.806;38.082;2023-04-15T11:23:35;6.97;;;2.33;;
55989;SDS011;41875;55.806;38.082;2023-04-15T11:26:11;2.78;;;1.73;;
55989;SDS011;41875;55.806;38.082;2023-04-15T11:28:46;6.68;;;1.95;;
55989;SDS011;41875;55.806;38.082;2023-04-15T11:31:16;4.43;;;1.83;;
55989;SDS011;41875;55.806;38.082;2023-04-15T11:33:52;8.82;;;2.30;;
55989;SDS011;41875;55.806;38.082;2023-04-15T11:36:23;8.75;;;2.25;;
55989;SDS011;41875;55.806;38.082;2023-04-15T11:38:56;7.00;;;2.00;;
55989;SDS011;41875;55.806;38.082;2023-04-15T11:41:27;3.78;;;2.08;;
55989;SDS011;41875;55.806;38.082;2023-04-15T11:44:01;3.72;;;1.50;;
55989;SDS011;41875;55.806;38.082;2023-04-15T11:46:32;6.60;;;1.70;;
55989;SDS011;41875;55.806;38.082;2023-04-15T11:49:02;5.72;;;1.58;;
55989;SDS011;41875;55.806;38.082;2023-04-15T11:51:33;5.28;;;1.50;;
55989;SDS011;41875;55.806;38.082;2023-04-15T11:54:06;5.78;;;1.90;;
55989;SDS011;41875;55.806;38.082;2023-04-15T11:56:35;7.35;;;1.90;;
55989;SDS011;41875;55.806;38.082;2023-04-15T11:59:05;7.15;;;2.00;;
55989;SDS011;41875;55.806;38.082;2023-04-15T12:01:34;3.90;;;1.38;;
55989;SDS011;41875;55.806;38.082;2023-04-15T12:04:09;7.80;;;1.75;;
55989;SDS011;41875;55.806;38.082;2023-04-15T12:06:39;7.18;;;1.98;;
55989;SDS011;41875;55.806;38.082;2023-04-15T12:09:08;5.18;;;1.92;;
55989;SDS011;41875;55.806;38.082;2023-04-15T12:11:38;4.47;;;1.75;;
55989;SDS011;41875;55.806;38.082;2023-04-15T12:14:17;5.63;;;2.03;;
55989;SDS011;41875;55.806;38.082;2023-04-15T12:16:48;7.57;;;1.67;;
55989;SDS011;41875;55.806;38.082;2023-04-15T12:19:23;4.50;;;1.60;;
55989;SDS011;41875;55.806;38.082;2023-04-15T12:21:56;5.93;;;1.92;;
55989;SDS011;41875;55.806;38.082;2023-04-15T12:24:27;7.07;;;2.03;;
55989;SDS011;41875;55.806;38.082;2023-04-15T12:27:05;10.00;;;1.90;;
55989;SDS011;41875;55.806;38.082;2023-04-15T12:29:36;4.72;;;1.67;;
55989;SDS011;41875;55.806;38.082;2023-04-15T12:32:09;4.95;;;1.65;;
55989;SDS011;41875;55.806;38.082;2023-04-15T12:34:48;7.60;;;1.67;;
55989;SDS011;41875;55.806;38.082;2023-04-15T12:37:40;6.82;;;1.70;;
55989;SDS011;41875;55.806;38.082;2023-04-15T12:40:09;8.00;;;3.58;;
55989;SDS011;41875;55.806;38.082;2023-04-15T12:42:46;5.30;;;1.80;;
55989;SDS011;41875;55.806;38.082;2023-04-15T12:45:16;9.15;;;2.50;;
55989;SDS011;41875;55.806;38.082;2023-04-15T12:47:45;7.30;;;2.10;;
55989;SDS011;41875;55.806;38.082;2023-04-15T12:50:14;4.65;;;1.27;;
55989;SDS011;41875;55.806;38.082;2023-04-15T12:52:43;4.45;;;1.70;;
55989;SDS011;41875;55.806;38.082;2023-04-15T12:55:17;5.25;;;1.70;;
55989;SDS011;41875;55.806;38.082;2023-04-15T13:00:19;8.27;;;1.95;;
55989;SDS011;41875;55.806;38.082;2023-04-15T13:02:48;7.20;;;2.05;;
55989;SDS011;41875;55.806;38.082;2023-04-15T13:07:45;3.90;;;1.35;;
55989;SDS011;41875;55.806;38.082;2023-04-15T13:10:16;6.80;;;1.77;;
55989;SDS011;41875;55.806;38.082;2023-04-15T13:12:47;6.18;;;1.83;;
55989;SDS011;41875;55.806;38.082;2023-04-15T13:15:21;4.97;;;2.42;;
55989;SDS011;41875;55.806;38.082;2023-04-15T13:17:51;6.13;;;2.22;;
55989;SDS011;41875;55.806;38.082;2023-04-15T13:20:20;6.30;;;1.90;;
55989;SDS011;41875;55.806;38.082;2023-04-15T13:22:52;6.53;;;2.60;;
55989;SDS011;41875;55.806;38.082;2023-04-15T13:25:23;7.65;;;2.08;;
55989;SDS011;41875;55.806;38.082;2023-04-15T13:27:53;8.00;;;2.28;;
55989;SDS011;41875;55.806;38.082;2023-04-15T13:30:24;8.38;;;2.88;;
55989;SDS011;41875;55.806;38.082;2023-04-15T13:32:54;9.43;;;1.70;;
55989;SDS011;41875;55.806;38.082;2023-04-15T13:35:23;7.80;;;2.10;;
55989;SDS011;41875;55.806;38.082;2023-04-15T13:37:52;5.28;;;1.70;;
55989;SDS011;41875;55.806;38.082;2023-04-15T13:40:22;8.48;;;2.10;;
55989;SDS011;41875;55.806;38.082;2023-04-15T13:42:50;3.03;;;1.60;;
55989;SDS011;41875;55.806;38.082;2023-04-15T13:45:19;6.43;;;1.88;;
55989;SDS011;41875;55.806;38.082;2023-04-15T13:50:23;6.10;;;2.08;;
55989;SDS011;41875;55.806;38.082;2023-04-15T13:52:55;5.75;;;2.15;;
55989;SDS011;41875;55.806;38.082;2023-04-15T13:55:24;7.30;;;2.13;;
55989;SDS011;41875;55.806;38.082;2023-04-15T13:57:55;8.80;;;2.08;;
55989;SDS011;41875;55.806;38.082;2023-04-15T14:00:24;5.43;;;2.33;;
55989;SDS011;41875;55.806;38.082;2023-04-15T14:02:54;5.13;;;2.05;;
55989;SDS011;41875;55.806;38.082;2023-04-15T14:05:23;7.80;;;2.30;;
55989;SDS011;41875;55.806;38.082;2023-04-15T14:07:53;6.15;;;1.70;;
55989;SDS011;41875;55.806;38.082;2023-04-15T14:10:26;6.35;;;2.38;;
55989;SDS011;41875;55.806;38.082;2023-04-15T14:12:54;5.30;;;1.77;;
55989;SDS011;41875;55.806;38.082;2023-04-15T14:15:23;4.93;;;1.70;;
55989;SDS011;41875;55.806;38.082;2023-04-15T14:17:51;5.70;;;2.20;;
55989;SDS011;41875;55.806;38.082;2023-04-15T14:20:22;4.70;;;1.73;;
55989;SDS011;41875;55.806;38.082;2023-04-15T14:22:51;4.28;;;1.80;;
55989;SDS011;41875;55.806;38.082;2023-04-15T14:25:25;5.57;;;1.65;;
55989;SDS011;41875;55.806;38.082;2023-04-15T14:27:59;5.57;;;1.98;;
55989;SDS011;41875;55.806;38.082;2023-04-15T14:30:29;5.10;;;1.63;;
55989;SDS011;41875;55.806;38.082;2023-04-15T14:32:58;4.45;;;1.77;;
55989;SDS011;41875;55.806;38.082;2023-04-15T14:35:28;6.10;;;2.13;;
55989;SDS011;41875;55.806;38.082;2023-04-15T14:37:56;5.68;;;2.25;;
55989;SDS011;41875;55.806;38.082;2023-04-15T14:40:25;8.75;;;1.80;;
55989;SDS011;41875;55.806;38.082;2023-04-15T14:42:53;2.88;;;1.50;;
55989;SDS011;41875;55.806;38.082;2023-04-15T14:45:22;4.25;;;1.67;;
55989;SDS011;41875;55.806;38.082;2023-04-15T14:47:50;4.20;;;1.35;;
55989;SDS011;41875;55.806;38.082;2023-04-15T14:50:19;5.72;;;2.08;;
55989;SDS011;41875;55.806;38.082;2023-04-15T14:52:50;7.20;;;2.40;;
55989;SDS011;41875;55.806;38.082;2023-04-15T14:55:25;7.53;;;2.63;;
55989;SDS011;41875;55.806;38.082;2023-04-15T14:58:05;6.55;;;2.65;;
55989;SDS011;41875;55.806;38.082;2023-04-15T15:00:37;7.45;;;2.47;;
55989;SDS011;41875;55.806;38.082;2023-04-15T15:03:10;6.55;;;2.10;;
55989;SDS011;41875;55.806;38.082;2023-04-15T15:05:40;5.07;;;2.08;;
55989;SDS011;41875;55.806;38.082;2023-04-15T15:08:17;6.40;;;2.10;;
55989;SDS011;41875;55.806;38.082;2023-04-15T15:10:46;4.72;;;1.50;;
55989;SDS011;41875;55.806;38.082;2023-04-15T15:13:15;10.82;;;2.80;;
55989;SDS011;41875;55.806;38.082;2023-04-15T15:15:45;3.38;;;1.70;;
55989;SDS011;41875;55.806;38.082;2023-04-15T15:18:19;7.93;;;2.90;;
55989;SDS011;41875;55.806;38.082;2023-04-15T15:20:58;6.75;;;2.35;;
55989;SDS011;41875;55.806;38.082;2023-04-15T15:23:28;8.45;;;2.08;;
55989;SDS011;41875;55.806;38.082;2023-04-15T15:25:57;8.07;;;2.25;;
55989;SDS011;41875;55.806;38.082;2023-04-15T15:28:26;4.55;;;2.10;;
55989;SDS011;41875;55.806;38.082;2023-04-15T15:30:57;7.82;;;2.63;;
55989;SDS011;41875;55.806;38.082;2023-04-15T15:33:26;8.48;;;2.50;;
55989;SDS011;41875;55.806;38.082;2023-04-15T15:35:56;6.63;;;2.20;;
55989;SDS011;41875;55.806;38.082;2023-04-15T15:38:31;5.82;;;2.25;;
55989;SDS011;41875;55.806;38.082;2023-04-15T15:41:00;5.70;;;1.95;;
55989;SDS011;41875;55.806;38.082;2023-04-15T15:43:28;10.85;;;2.70;;
55989;SDS011;41875;55.806;38.082;2023-04-15T15:45:57;9.15;;;3.28;;
55989;SDS011;41875;55.806;38.082;2023-04-15T15:48:29;6.93;;;2.78;;